sensor_id;sensor_type;location;lat;lon;timestamp;pressure;altitude;pressure_sealevel;temperature;humidity
37200;BME280;23096;50.892;16.746;2023-01-19T00:00:10;97894.90;;;0.76;75.71
37200;BME280;23096;50.892;16.746;2023-01-19T00:02:37;97895.86;;;0.80;75.81
37200;BME280;23096;50.892;16.746;2023-01-19T00:05:03;97899.02;;;0.84;75.79
37200;BME280;23096;50.892;16.746;2023-01-19T00:07:29;97904.19;;;0.88;75.90
37200;BME280;23096;50.892;16.746;2023-01-19T00:09:54;97905.66;;;0.92;75.83
37200;BME280;23096;50.892;16.746;2023-01-19T00:12:19;97906.80;;;0.96;75.90
37200;BME280;23096;50.892;16.746;2023-01-19T00:14:45;97911.98;;;1.00;75.97
37200;BME280;23096;50.892;16.746;2023-01-19T00:17:10;97917.72;;;1.01;75.81
37200;BME280;23096;50.892;16.746;2023-01-19T00:19:35;97922.94;;;1.02;75.81
37200;BME280;23096;50.892;16.746;2023-01-19T00:22:01;97933.09;;;1.02;75.85
37200;BME280;23096;50.892;16.746;2023-01-19T00:24:26;97932.09;;;1.01;75.80
37200;BME280;23096;50.892;16.746;2023-01-19T00:26:52;97938.52;;;1.00;75.88
37200;BME280;23096;50.892;16.746;2023-01-19T00:29:17;97931.75;;;1.01;76.04
37200;BME280;23096;50.892;16.746;2023-01-19T00:31:44;97929.02;;;1.03;75.93
37200;BME280;23096;50.892;16.746;2023-01-19T00:34:10;97926.81;;;1.04;76.02
37200;BME280;23096;50.892;16.746;2023-01-19T00:36:35;97925.27;;;1.05;76.02
37200;BME280;23096;50.892;16.746;2023-01-19T00:39:00;97923.20;;;1.07;76.04
37200;BME280;23096;50.892;16.746;2023-01-19T00:41:26;97926.20;;;1.11;76.08
37200;BME280;23096;50.892;16.746;2023-01-19T00:44:10;97935.96;;;1.14;76.11
37200;BME280;23096;50.892;16.746;2023-01-19T00:46:36;97940.31;;;1.18;76.22
37200;BME280;23096;50.892;16.746;2023-01-19T00:49:01;97944.97;;;1.22;76.16
37200;BME280;23096;50.892;16.746;2023-01-19T00:51:27;97949.98;;;1.26;76.18
37200;BME280;23096;50.892;16.746;2023-01-19T00:53:52;97951.45;;;1.29;76.03
37200;BME280;23096;50.892;16.746;2023-01-19T00:56:18;97955.16;;;1.30;76.06
37200;BME280;23096;50.892;16.746;2023-01-19T00:58:43;97953.98;;;1.31;76.14
37200;BME280;23096;50.892;16.746;2023-01-19T01:01:12;97957.66;;;1.34;76.13
37200;BME280;23096;50.892;16.746;2023-01-19T01:03:37;97966.40;;;1.38;76.21
37200;BME280;23096;50.892;16.746;2023-01-19T01:06:03;97974.67;;;1.39;76.09
37200;BME280;23096;50.892;16.746;2023-01-19T01:08:31;97976.35;;;1.41;76.20
37200;BME280;23096;50.892;16.746;2023-01-19T01:10:56;97976.46;;;1.44;76.16
37200;BME280;23096;50.892;16.746;2023-01-19T01:13:22;97976.41;;;1.46;76.17
37200;BME280;23096;50.892;16.746;2023-01-19T01:15:50;97975.88;;;1.48;76.15
37200;BME280;23096;50.892;16.746;2023-01-19T01:18:16;97977.54;;;1.50;76.13
37200;BME280;23096;50.892;16.746;2023-01-19T01:20:41;97981.94;;;1.51;76.21
37200;BME280;23096;50.892;16.746;2023-01-19T01:23:07;97984.13;;;1.51;76.16
37200;BME280;23096;50.892;16.746;2023-01-19T01:25:32;97982.25;;;1.52;76.14
37200;BME280;23096;50.892;16.746;2023-01-19T01:28:02;97987.83;;;1.52;76.18
37200;BME280;23096;50.892;16.746;2023-01-19T01:30:29;97993.27;;;1.51;76.09
37200;BME280;23096;50.892;16.746;2023-01-19T01:32:54;97995.54;;;1.46;76.00
37200;BME280;23096;50.892;16.746;2023-01-19T01:35:20;98000.16;;;1.43;76.05
37200;BME280;23096;50.892;16.746;2023-01-19T01:37:45;98001.36;;;1.42;75.96
37200;BME280;23096;50.892;16.746;2023-01-19T01:40:12;98004.92;;;1.41;76.14
37200;BME280;23096;50.892;16.746;2023-01-19T01:42:38;98007.83;;;1.40;76.05
37200;BME280;23096;50.892;16.746;2023-01-19T01:45:06;98005.28;;;1.40;75.98
37200;BME280;23096;50.892;16.746;2023-01-19T01:47:45;98008.66;;;1.41;76.09
37200;BME280;23096;50.892;16.746;2023-01-19T01:52:40;98013.89;;;1.42;75.97
37200;BME280;23096;50.892;16.746;2023-01-19T01:55:07;98015.79;;;1.40;76.03
37200;BME280;23096;50.892;16.746;2023-01-19T01:57:38;98018.02;;;1.37;76.01
37200;BME280;23096;50.892;16.746;2023-01-19T02:00:06;98018.58;;;1.34;75.98
37200;BME280;23096;50.892;16.746;2023-01-19T02:02:33;98022.49;;;1.32;75.97
37200;BME280;23096;50.892;16.746;2023-01-19T02:07:42;98018.77;;;1.31;75.97
37200;BME280;23096;50.892;16.746;2023-01-19T02:10:29;98023.55;;;1.28;75.95
37200;BME280;23096;50.892;16.746;2023-01-19T02:13:14;98027.02;;;1.22;75.98
37200;BME280;23096;50.892;16.746;2023-01-19T02:15:46;98030.31;;;1.17;75.84
37200;BME280;23096;50.892;16.746;2023-01-19T02:18:12;98032.48;;;1.18;76.04
37200;BME280;23096;50.892;16.746;2023-01-19T02:20:38;98036.19;;;1.20;76.05
37200;BME280;23096;50.892;16.746;2023-01-19T02:23:06;98036.64;;;1.24;75.99
37200;BME280;23096;50.892;16.746;2023-01-19T02:25:35;98041.89;;;1.24;76.00
37200;BME280;23096;50.892;16.746;2023-01-19T02:28:00;98043.92;;;1.24;76.17
37200;BME280;23096;50.892;16.746;2023-01-19T02:30:26;98039.81;;;1.27;76.16
37200;BME280;23096;50.892;16.746;2023-01-19T02:32:52;98041.32;;;1.28;76.18
37200;BME280;23096;50.892;16.746;2023-01-19T02:35:17;98041.36;;;1.25;76.17
37200;BME280;23096;50.892;16.746;2023-01-19T02:37:43;98040.70;;;1.23;76.09
37200;BME280;23096;50.892;16.746;2023-01-19T02:40:09;98041.24;;;1.21;76.14
37200;BME280;23096;50.892;16.746;2023-01-19T02:42:41;98038.72;;;1.21;76.26
37200;BME280;23096;50.892;16.746;2023-01-19T02:45:08;98035.34;;;1.20;76.15
37200;BME280;23096;50.892;16.746;2023-01-19T02:47:38;98035.34;;;1.19;76.11
37200;BME280;23096;50.892;16.746;2023-01-19T02:50:04;98034.48;;;1.20;76.21
37200;BME280;23096;50.892;16.746;2023-01-19T02:52:49;98031.41;;;1.23;76.24
37200;BME280;23096;50.892;16.746;2023-01-19T02:55:18;98026.86;;;1.21;76.15
37200;BME280;23096;50.892;16.746;2023-01-19T03:13:09;98040.81;;;1.02;75.99
37200;BME280;23096;50.892;16.746;2023-01-19T03:18:13;98045.85;;;0.92;75.87
37200;BME280;23096;50.892;16.746;2023-01-19T03:20:41;98047.27;;;0.86;75.82
37200;BME280;23096;50.892;16.746;2023-01-19T03:23:09;98049.36;;;0.81;75.86
37200;BME280;23096;50.892;16.746;2023-01-19T03:25:36;98052.61;;;0.79;75.88
37200;BME280;23096;50.892;16.746;2023-01-19T03:28:03;98053.30;;;0.77;75.97
37200;BME280;23096;50.892;16.746;2023-01-19T03:30:31;98055.35;;;0.75;75.94
37200;BME280;23096;50.892;16.746;2023-01-19T03:33:03;98054.87;;;0.72;76.00
37200;BME280;23096;50.892;16.746;2023-01-19T03:35:32;98052.17;;;0.71;76.01
37200;BME280;23096;50.892;16.746;2023-01-19T03:37:59;98054.89;;;0.71;75.91
37200;BME280;23096;50.892;16.746;2023-01-19T03:40:28;98052.02;;;0.70;76.04
37200;BME280;23096;50.892;16.746;2023-01-19T03:42:54;98050.20;;;0.67;76.00
37200;BME280;23096;50.892;16.746;2023-01-19T03:45:19;98055.48;;;0.63;76.04
37200;BME280;23096;50.892;16.746;2023-01-19T03:47:46;98053.81;;;0.61;76.00
37200;BME280;23096;50.892;16.746;2023-01-19T03:50:17;98052.81;;;0.59;76.08
37200;BME280;23096;50.892;16.746;2023-01-19T03:52:58;98050.98;;;0.57;76.11
37200;BME280;23096;50.892;16.746;2023-01-19T03:55:23;98051.49;;;0.56;76.17
37200;BME280;23096;50.892;16.746;2023-01-19T03:57:49;98045.42;;;0.54;76.12
37200;BME280;23096;50.892;16.746;2023-01-19T04:00:15;98048.31;;;0.52;76.07
37200;BME280;23096;50.892;16.746;2023-01-19T04:02:40;98052.20;;;0.52;75.98
37200;BME280;23096;50.892;16.746;2023-01-19T04:05:06;98058.63;;;0.52;76.13
37200;BME280;23096;50.892;16.746;2023-01-19T04:07:31;98063.03;;;0.52;76.10
37200;BME280;23096;50.892;16.746;2023-01-19T04:09:57;98070.66;;;0.50;76.11
37200;BME280;23096;50.892;16.746;2023-01-19T04:12:22;98077.41;;;0.50;76.17
37200;BME280;23096;50.892;16.746;2023-01-19T04:14:48;98077.92;;;0.49;76.10
37200;BME280;23096;50.892;16.746;2023-01-19T04:17:13;98076.40;;;0.49;76.07
37200;BME280;23096;50.892;16.746;2023-01-19T04:19:40;98078.26;;;0.50;76.30
37200;BME280;23096;50.892;16.746;2023-01-19T04:22:05;98075.21;;;0.51;76.24
37200;BME280;23096;50.892;16.746;2023-01-19T04:24:30;98079.27;;;0.51;76.25
37200;BME280;23096;50.892;16.746;2023-01-19T04:26:56;98084.16;;;0.51;76.27
37200;BME280;23096;50.892;16.746;2023-01-19T04:29:21;98083.16;;;0.49;76.31
37200;BME280;23096;50.892;16.746;2023-01-19T04:37:51;98093.02;;;0.43;76.23
37200;BME280;23096;50.892;16.746;2023-01-19T04:40:17;98097.94;;;0.42;76.23
37200;BME280;23096;50.892;16.746;2023-01-19T04:42:45;98098.77;;;0.43;76.21
37200;BME280;23096;50.892;16.746;2023-01-19T04:45:11;98103.34;;;0.43;76.40
37200;BME280;23096;50.892;16.746;2023-01-19T04:47:37;98111.11;;;0.43;76.40
37200;BME280;23096;50.892;16.746;2023-01-19T04:50:02;98118.72;;;0.44;76.36
37200;BME280;23096;50.892;16.746;2023-01-19T04:52:30;98130.35;;;0.44;76.49
37200;BME280;23096;50.892;16.746;2023-01-19T04:54:59;98138.45;;;0.46;76.42
37200;BME280;23096;50.892;16.746;2023-01-19T04:57:25;98144.85;;;0.48;76.52
37200;BME280;23096;50.892;16.746;2023-01-19T04:59:50;98158.36;;;0.51;76.59
37200;BME280;23096;50.892;16.746;2023-01-19T05:02:15;98165.61;;;0.51;76.43
37200;BME280;23096;50.892;16.746;2023-01-19T05:04:41;98168.02;;;0.48;76.55
37200;BME280;23096;50.892;16.746;2023-01-19T05:07:07;98179.17;;;0.48;76.67
37200;BME280;23096;50.892;16.746;2023-01-19T05:09:33;98187.76;;;0.50;76.70
37200;BME280;23096;50.892;16.746;2023-01-19T05:11:58;98187.92;;;0.52;76.61
37200;BME280;23096;50.892;16.746;2023-01-19T05:14:23;98187.06;;;0.53;76.74
37200;BME280;23096;50.892;16.746;2023-01-19T05:16:49;98182.30;;;0.57;76.74
37200;BME280;23096;50.892;16.746;2023-01-19T05:19:14;98179.74;;;0.60;76.69
37200;BME280;23096;50.892;16.746;2023-01-19T05:21:39;98180.08;;;0.61;76.77
37200;BME280;23096;50.892;16.746;2023-01-19T05:24:05;98171.27;;;0.62;76.82
37200;BME280;23096;50.892;16.746;2023-01-19T05:26:30;98168.08;;;0.60;76.55
37200;BME280;23096;50.892;16.746;2023-01-19T05:28:56;98164.89;;;0.57;76.67
37200;BME280;23096;50.892;16.746;2023-01-19T05:31:21;98164.37;;;0.59;76.65
37200;BME280;23096;50.892;16.746;2023-01-19T05:33:47;98165.03;;;0.60;76.69
37200;BME280;23096;50.892;16.746;2023-01-19T05:36:13;98161.67;;;0.58;76.70
37200;BME280;23096;50.892;16.746;2023-01-19T05:38:38;98156.43;;;0.59;76.85
37200;BME280;23096;50.892;16.746;2023-01-19T05:41:03;98164.02;;;0.60;76.73
37200;BME280;23096;50.892;16.746;2023-01-19T05:43:29;98163.85;;;0.60;76.77
37200;BME280;23096;50.892;16.746;2023-01-19T05:45:54;98157.42;;;0.61;76.73
37200;BME280;23096;50.892;16.746;2023-01-19T05:48:20;98154.88;;;0.60;76.84
37200;BME280;23096;50.892;16.746;2023-01-19T05:50:45;98159.11;;;0.60;76.87
37200;BME280;23096;50.892;16.746;2023-01-19T05:53:12;98169.42;;;0.59;76.87
37200;BME280;23096;50.892;16.746;2023-01-19T05:55:38;98179.39;;;0.60;76.76
37200;BME280;23096;50.892;16.746;2023-01-19T05:58:03;98193.27;;;0.60;76.86
37200;BME280;23096;50.892;16.746;2023-01-19T06:00:29;98200.36;;;0.59;76.93
37200;BME280;23096;50.892;16.746;2023-01-19T06:02:54;98204.60;;;0.59;76.86
37200;BME280;23096;50.892;16.746;2023-01-19T06:05:19;98212.88;;;0.58;76.82
37200;BME280;23096;50.892;16.746;2023-01-19T06:07:45;98216.94;;;0.57;76.87
37200;BME280;23096;50.892;16.746;2023-01-19T06:10:10;98221.68;;;0.56;76.98
37200;BME280;23096;50.892;16.746;2023-01-19T06:12:38;98222.73;;;0.53;76.89
37200;BME280;23096;50.892;16.746;2023-01-19T06:15:03;98217.85;;;0.51;76.80
37200;BME280;23096;50.892;16.746;2023-01-19T06:17:30;98213.45;;;0.49;76.88
37200;BME280;23096;50.892;16.746;2023-01-19T06:19:56;98209.93;;;0.47;76.83
37200;BME280;23096;50.892;16.746;2023-01-19T06:22:21;98214.81;;;0.48;76.86
37200;BME280;23096;50.892;16.746;2023-01-19T06:24:47;98220.74;;;0.47;76.88
37200;BME280;23096;50.892;16.746;2023-01-19T06:27:12;98225.98;;;0.46;76.83
37200;BME280;23096;50.892;16.746;2023-01-19T06:29:37;98233.09;;;0.46;76.84
37200;BME280;23096;50.892;16.746;2023-01-19T06:32:03;98238.85;;;0.44;76.95
37200;BME280;23096;50.892;16.746;2023-01-19T06:34:29;98235.48;;;0.42;76.84
37200;BME280;23096;50.892;16.746;2023-01-19T06:36:54;98238.38;;;0.38;76.78
37200;BME280;23096;50.892;16.746;2023-01-19T06:39:20;98240.77;;;0.35;76.88
37200;BME280;23096;50.892;16.746;2023-01-19T06:41:45;98239.59;;;0.33;76.85
37200;BME280;23096;50.892;16.746;2023-01-19T06:44:11;98242.64;;;0.33;76.79
37200;BME280;23096;50.892;16.746;2023-01-19T06:46:36;98244.19;;;0.30;76.72
37200;BME280;23096;50.892;16.746;2023-01-19T06:49:02;98249.43;;;0.28;76.75
37200;BME280;23096;50.892;16.746;2023-01-19T06:51:27;98254.35;;;0.25;76.71
37200;BME280;23096;50.892;16.746;2023-01-19T06:53:53;98246.44;;;0.19;76.67
37200;BME280;23096;50.892;16.746;2023-01-19T06:56:18;98247.98;;;0.16;76.71
37200;BME280;23096;50.892;16.746;2023-01-19T06:58:45;98249.70;;;0.12;76.69
37200;BME280;23096;50.892;16.746;2023-01-19T07:01:10;98249.20;;;0.09;76.66
37200;BME280;23096;50.892;16.746;2023-01-19T07:03:36;98254.11;;;0.07;76.69
37200;BME280;23096;50.892;16.746;2023-01-19T07:06:02;98252.43;;;0.05;76.53
37200;BME280;23096;50.892;16.746;2023-01-19T07:08:31;98252.11;;;0.03;76.60
37200;BME280;23096;50.892;16.746;2023-01-19T07:11:04;98250.61;;;0.01;76.58
37200;BME280;23096;50.892;16.746;2023-01-19T07:13:31;98248.08;;;-0.01;76.52
37200;BME280;23096;50.892;16.746;2023-01-19T07:15:56;98246.23;;;-0.02;76.55
37200;BME280;23096;50.892;16.746;2023-01-19T07:18:22;98243.35;;;-0.01;76.50
37200;BME280;23096;50.892;16.746;2023-01-19T07:20:47;98243.70;;;-0.04;76.51
37200;BME280;23096;50.892;16.746;2023-01-19T07:23:13;98246.91;;;-0.06;76.49
37200;BME280;23096;50.892;16.746;2023-01-19T07:25:40;98243.55;;;-0.07;76.49
37200;BME280;23096;50.892;16.746;2023-01-19T07:28:05;98239.34;;;-0.08;76.38
37200;BME280;23096;50.892;16.746;2023-01-19T07:30:31;98237.48;;;-0.09;76.41
37200;BME280;23096;50.892;16.746;2023-01-19T07:32:56;98239.52;;;-0.12;76.46
37200;BME280;23096;50.892;16.746;2023-01-19T07:35:25;98237.68;;;-0.14;76.31
37200;BME280;23096;50.892;16.746;2023-01-19T07:37:50;98240.22;;;-0.15;76.38
37200;BME280;23096;50.892;16.746;2023-01-19T07:40:16;98240.21;;;-0.15;76.26
37200;BME280;23096;50.892;16.746;2023-01-19T07:42:45;98237.35;;;-0.15;76.35
37200;BME280;23096;50.892;16.746;2023-01-19T07:45:10;98238.00;;;-0.14;76.24
37200;BME280;23096;50.892;16.746;2023-01-19T07:47:36;98242.73;;;-0.13;76.15
37200;BME280;23096;50.892;16.746;2023-01-19T07:50:01;98242.39;;;-0.12;76.19
37200;BME280;23096;50.892;16.746;2023-01-19T07:52:27;98244.40;;;-0.08;76.19
37200;BME280;23096;50.892;16.746;2023-01-19T07:54:52;98241.52;;;-0.05;76.11
37200;BME280;23096;50.892;16.746;2023-01-19T07:57:18;98245.70;;;-0.02;76.18
37200;BME280;23096;50.892;16.746;2023-01-19T07:59:44;98248.06;;;0.02;76.17
37200;BME280;23096;50.892;16.746;2023-01-19T08:02:09;98245.15;;;0.07;76.01
37200;BME280;23096;50.892;16.746;2023-01-19T08:04:35;98245.48;;;0.08;76.02
37200;BME280;23096;50.892;16.746;2023-01-19T08:07:00;98252.74;;;0.08;75.85
37200;BME280;23096;50.892;16.746;2023-01-19T08:09:26;98252.59;;;0.08;75.83
37200;BME280;23096;50.892;16.746;2023-01-19T08:11:51;98254.44;;;0.10;75.91
37200;BME280;23096;50.892;16.746;2023-01-19T08:14:16;98257.47;;;0.10;75.87
37200;BME280;23096;50.892;16.746;2023-01-19T08:16:42;98260.35;;;0.10;75.84
37200;BME280;23096;50.892;16.746;2023-01-19T08:19:07;98269.13;;;0.09;75.70
37200;BME280;23096;50.892;16.746;2023-01-19T08:21:33;98265.26;;;0.09;75.76
37200;BME280;23096;50.892;16.746;2023-01-19T08:23:59;98268.63;;;0.08;75.49
37200;BME280;23096;50.892;16.746;2023-01-19T08:28:52;98265.77;;;0.07;75.53
37200;BME280;23096;50.892;16.746;2023-01-19T08:31:18;98270.00;;;0.06;75.46
37200;BME280;23096;50.892;16.746;2023-01-19T08:33:44;98272.70;;;0.04;75.52
37200;BME280;23096;50.892;16.746;2023-01-19T08:36:09;98276.08;;;0.04;75.48
37200;BME280;23096;50.892;16.746;2023-01-19T08:38:34;98273.73;;;0.02;75.40
37200;BME280;23096;50.892;16.746;2023-01-19T08:41:00;98274.91;;;0.01;75.52
37200;BME280;23096;50.892;16.746;2023-01-19T08:43:25;98274.59;;;-0.02;75.50
37200;BME280;23096;50.892;16.746;2023-01-19T08:45:51;98275.94;;;-0.02;75.50
37200;BME280;23096;50.892;16.746;2023-01-19T08:48:18;98277.96;;;0.00;75.44
37200;BME280;23096;50.892;16.746;2023-01-19T08:50:44;98277.61;;;0.01;75.53
37200;BME280;23096;50.892;16.746;2023-01-19T08:53:11;98282.68;;;0.03;75.36
37200;BME280;23096;50.892;16.746;2023-01-19T08:55:36;98284.20;;;0.03;75.34
37200;BME280;23096;50.892;16.746;2023-01-19T08:58:02;98289.40;;;0.05;75.40
37200;BME280;23096;50.892;16.746;2023-01-19T09:00:28;98298.51;;;0.11;75.33
37200;BME280;23096;50.892;16.746;2023-01-19T09:02:56;98311.16;;;0.16;75.37
37200;BME280;23096;50.892;16.746;2023-01-19T09:05:21;98323.80;;;0.20;75.40
37200;BME280;23096;50.892;16.746;2023-01-19T09:07:47;98331.39;;;0.23;75.25
37200;BME280;23096;50.892;16.746;2023-01-19T09:10:13;98337.48;;;0.19;75.16
37200;BME280;23096;50.892;16.746;2023-01-19T09:12:39;98343.73;;;0.20;75.11
37200;BME280;23096;50.892;16.746;2023-01-19T09:15:04;98346.77;;;0.22;75.14
37200;BME280;23096;50.892;16.746;2023-01-19T09:17:30;98346.75;;;0.24;75.17
37200;BME280;23096;50.892;16.746;2023-01-19T09:19:55;98352.64;;;0.29;74.99
37200;BME280;23096;50.892;16.746;2023-01-19T09:22:21;98352.45;;;0.31;75.04
37200;BME280;23096;50.892;16.746;2023-01-19T09:24:46;98351.62;;;0.33;74.93
37200;BME280;23096;50.892;16.746;2023-01-19T09:27:11;98351.59;;;0.36;75.01
37200;BME280;23096;50.892;16.746;2023-01-19T09:29:37;98349.71;;;0.39;74.88
37200;BME280;23096;50.892;16.746;2023-01-19T09:32:03;98348.02;;;0.43;74.86
37200;BME280;23096;50.892;16.746;2023-01-19T09:34:28;98352.39;;;0.46;74.79
37200;BME280;23096;50.892;16.746;2023-01-19T09:36:56;98355.42;;;0.46;74.66
37200;BME280;23096;50.892;16.746;2023-01-19T09:39:21;98355.24;;;0.49;74.75
37200;BME280;23096;50.892;16.746;2023-01-19T09:41:50;98353.05;;;0.51;74.72
37200;BME280;23096;50.892;16.746;2023-01-19T09:44:27;98347.95;;;0.52;74.64
37200;BME280;23096;50.892;16.746;2023-01-19T09:46:53;98339.50;;;0.54;74.60
37200;BME280;23096;50.892;16.746;2023-01-19T09:49:41;98332.54;;;0.59;74.55
37200;BME280;23096;50.892;16.746;2023-01-19T09:52:06;98329.31;;;0.62;74.55
37200;BME280;23096;50.892;16.746;2023-01-19T09:54:34;98324.06;;;0.64;74.43
37200;BME280;23096;50.892;16.746;2023-01-19T09:57:00;98326.76;;;0.65;74.40
37200;BME280;23096;50.892;16.746;2023-01-19T09:59:29;98328.29;;;0.64;74.25
37200;BME280;23096;50.892;16.746;2023-01-19T10:04:31;98320.14;;;0.66;74.36
37200;BME280;23096;50.892;16.746;2023-01-19T10:12:27;98321.31;;;0.71;74.03
37200;BME280;23096;50.892;16.746;2023-01-19T10:15:01;98325.34;;;0.74;73.96
37200;BME280;23096;50.892;16.746;2023-01-19T10:17:42;98326.13;;;0.81;74.07
37200;BME280;23096;50.892;16.746;2023-01-19T10:20:28;98324.55;;;0.90;74.10
37200;BME280;23096;50.892;16.746;2023-01-19T10:22:57;98323.48;;;0.99;73.97
37200;BME280;23096;50.892;16.746;2023-01-19T10:25:24;98322.09;;;1.02;73.92
37200;BME280;23096;50.892;16.746;2023-01-19T10:27:49;98320.75;;;0.99;73.59
37200;BME280;23096;50.892;16.746;2023-01-19T10:30:17;98325.51;;;0.96;73.44
37200;BME280;23096;50.892;16.746;2023-01-19T10:32:45;98326.37;;;0.97;73.42
37200;BME280;23096;50.892;16.746;2023-01-19T10:35:15;98329.55;;;1.00;73.39
37200;BME280;23096;50.892;16.746;2023-01-19T10:37:46;98330.19;;;1.05;73.41
37200;BME280;23096;50.892;16.746;2023-01-19T10:42:38;98325.93;;;1.09;73.13
37200;BME280;23096;50.892;16.746;2023-01-19T10:45:14;98325.27;;;1.05;73.14
37200;BME280;23096;50.892;16.746;2023-01-19T10:47:40;98327.14;;;1.05;73.08
37200;BME280;23096;50.892;16.746;2023-01-19T10:50:26;98326.48;;;1.03;72.81
37200;BME280;23096;50.892;16.746;2023-01-19T10:52:53;98329.86;;;1.02;72.72
37200;BME280;23096;50.892;16.746;2023-01-19T10:55:26;98334.76;;;1.05;72.71
37200;BME280;23096;50.892;16.746;2023-01-19T10:57:53;98335.20;;;1.11;72.70
37200;BME280;23096;50.892;16.746;2023-01-19T11:02:57;98334.36;;;1.11;72.43
37200;BME280;23096;50.892;16.746;2023-01-19T11:05:27;98331.98;;;1.11;72.41
37200;BME280;23096;50.892;16.746;2023-01-19T11:07:53;98333.69;;;1.12;72.17
37200;BME280;23096;50.892;16.746;2023-01-19T11:10:21;98329.60;;;1.15;72.25
37200;BME280;23096;50.892;16.746;2023-01-19T11:17:54;98317.41;;;1.14;71.82
37200;BME280;23096;50.892;16.746;2023-01-19T11:20:25;98319.26;;;1.18;72.03
37200;BME280;23096;50.892;16.746;2023-01-19T11:25:30;98311.48;;;1.35;71.79
37200;BME280;23096;50.892;16.746;2023-01-19T11:27:57;98308.05;;;1.38;71.68
37200;BME280;23096;50.892;16.746;2023-01-19T11:30:24;98306.52;;;1.39;71.51
37200;BME280;23096;50.892;16.746;2023-01-19T11:32:50;98307.05;;;1.37;71.48
37200;BME280;23096;50.892;16.746;2023-01-19T11:35:30;98309.77;;;1.36;71.33
37200;BME280;23096;50.892;16.746;2023-01-19T11:40:36;98305.42;;;1.49;71.30
37200;BME280;23096;50.892;16.746;2023-01-19T11:43:03;98300.95;;;1.53;71.24
37200;BME280;23096;50.892;16.746;2023-01-19T11:45:29;98300.16;;;1.49;71.14
37200;BME280;23096;50.892;16.746;2023-01-19T11:47:57;98305.05;;;1.51;71.13
37200;BME280;23096;50.892;16.746;2023-01-19T11:50:32;98305.02;;;1.54;70.96
37200;BME280;23096;50.892;16.746;2023-01-19T11:53:06;98303.44;;;1.60;70.91
37200;BME280;23096;50.892;16.746;2023-01-19T11:58:02;98306.16;;;1.74;70.91
37200;BME280;23096;50.892;16.746;2023-01-19T12:00:36;98300.02;;;1.79;70.74
37200;BME280;23096;50.892;16.746;2023-01-19T12:03:45;98298.61;;;1.83;70.63
37200;BME280;23096;50.892;16.746;2023-01-19T12:05:51;98298.85;;;1.91;70.64
37200;BME280;23096;50.892;16.746;2023-01-19T12:08:29;98292.84;;;1.98;70.68
37200;BME280;23096;50.892;16.746;2023-01-19T12:10:57;98291.31;;;1.98;70.51
37200;BME280;23096;50.892;16.746;2023-01-19T12:13:24;98282.37;;;1.96;70.36
37200;BME280;23096;50.892;16.746;2023-01-19T12:15:52;98280.90;;;1.91;70.15
37200;BME280;23096;50.892;16.746;2023-01-19T12:18:20;98281.84;;;1.83;70.05
37200;BME280;23096;50.892;16.746;2023-01-19T12:20:50;98278.80;;;1.83;69.99
37200;BME280;23096;50.892;16.746;2023-01-19T12:23:31;98273.86;;;1.85;69.92
37200;BME280;23096;50.892;16.746;2023-01-19T12:28:30;98270.63;;;1.87;69.73
37200;BME280;23096;50.892;16.746;2023-01-19T12:30:59;98264.20;;;1.86;69.70
37200;BME280;23096;50.892;16.746;2023-01-19T12:35:58;98269.09;;;1.88;69.39
37200;BME280;23096;50.892;16.746;2023-01-19T12:41:22;98264.04;;;1.98;69.19
37200;BME280;23096;50.892;16.746;2023-01-19T12:46:33;98267.90;;;2.01;69.00
37200;BME280;23096;50.892;16.746;2023-01-19T12:49:07;98270.23;;;2.04;68.98
37200;BME280;23096;50.892;16.746;2023-01-19T12:51:34;98269.34;;;2.07;68.81
37200;BME280;23096;50.892;16.746;2023-01-19T12:54:01;98270.60;;;2.02;68.64
37200;BME280;23096;50.892;16.746;2023-01-19T12:56:29;98272.91;;;1.94;68.45
37200;BME280;23096;50.892;16.746;2023-01-19T12:58:55;98272.42;;;1.91;68.28
37200;BME280;23096;50.892;16.746;2023-01-19T13:01:21;98273.48;;;1.87;68.15
37200;BME280;23096;50.892;16.746;2023-01-19T13:04:03;98273.73;;;1.82;68.06
37200;BME280;23096;50.892;16.746;2023-01-19T13:09:29;98279.57;;;1.75;67.83
37200;BME280;23096;50.892;16.746;2023-01-19T13:14:41;98286.72;;;1.73;67.53
37200;BME280;23096;50.892;16.746;2023-01-19T13:17:18;98286.29;;;1.79;67.39
37200;BME280;23096;50.892;16.746;2023-01-19T13:20:40;98283.89;;;1.81;67.42
37200;BME280;23096;50.892;16.746;2023-01-19T13:25:20;98282.07;;;1.77;67.12
37200;BME280;23096;50.892;16.746;2023-01-19T13:27:48;98284.17;;;1.72;66.86
37200;BME280;23096;50.892;16.746;2023-01-19T13:30:15;98283.90;;;1.66;67.00
37200;BME280;23096;50.892;16.746;2023-01-19T13:32:42;98284.46;;;1.61;66.72
37200;BME280;23096;50.892;16.746;2023-01-19T13:35:12;98287.36;;;1.60;66.65
37200;BME280;23096;50.892;16.746;2023-01-19T13:37:39;98290.23;;;1.59;66.49
37200;BME280;23096;50.892;16.746;2023-01-19T13:40:06;98292.27;;;1.59;66.51
37200;BME280;23096;50.892;16.746;2023-01-19T13:42:33;98291.28;;;1.57;66.38
37200;BME280;23096;50.892;16.746;2023-01-19T13:47:49;98296.02;;;1.56;66.21
37200;BME280;23096;50.892;16.746;2023-01-19T13:50:25;98296.21;;;1.55;66.07
37200;BME280;23096;50.892;16.746;2023-01-19T13:52:51;98295.52;;;1.56;66.00
37200;BME280;23096;50.892;16.746;2023-01-19T13:55:20;98299.90;;;1.58;65.99
37200;BME280;23096;50.892;16.746;2023-01-19T13:57:46;98302.75;;;1.62;65.89
37200;BME280;23096;50.892;16.746;2023-01-19T14:00:22;98302.55;;;1.63;65.92
37200;BME280;23096;50.892;16.746;2023-01-19T14:05:28;98307.72;;;1.54;65.63
37200;BME280;23096;50.892;16.746;2023-01-19T14:08:01;98308.48;;;1.47;65.57
37200;BME280;23096;50.892;16.746;2023-01-19T14:10:27;98310.92;;;1.40;65.30
37200;BME280;23096;50.892;16.746;2023-01-19T14:12:57;98312.15;;;1.36;65.41
37200;BME280;23096;50.892;16.746;2023-01-19T14:15:23;98317.21;;;1.36;65.36
37200;BME280;23096;50.892;16.746;2023-01-19T14:18:06;98318.58;;;1.36;65.24
37200;BME280;23096;50.892;16.746;2023-01-19T14:20:32;98321.98;;;1.34;65.29
37200;BME280;23096;50.892;16.746;2023-01-19T14:23:01;98325.36;;;1.33;65.17